Pemberton, NJ (08068)

7:32 PM EST on February 13, 2016 (GMT -0500)
Arneys Mount Road | | Change Station
CLOSE
Current Station
Personal Weather Station
Location: Pemberton, NJ
Elevation: 66 ft
Nearby Weather Stations
Active Advisory: Wind Chill Advisory

Elev 66 ft 40.00 °N, 74.69 °W | Updated 3 seconds ago

Clear
Clear
12.4 °F
Feels Like -3 °F
N
13.2
Wind Variable Wind from NNW
Gusts 13.2 mph

Today
High -- | Low -- °F
--% Chance of Precip.
Yesterday
High -- | Low -- °F
Precip. -- in
Pressure 30.27 in
Visibility 10.0 miles
Clouds Few 6000 ft
Windchill -3 °F
Dew Point -18 °F
Humidity 24%
Rainfall 0.00 in
Snow Depth Not available.
6:54 AM 5:31 PM
Waxing Crescent, 35% visible
METAR KWRI 132358Z AUTO 31013G19KT 10SM FEW060 M11/M24 A3026 RMK AO2 PK WND 30028/42 SLP249 60000 T11081243 11053 21108 52040
Pressure 30.27 in
Visibility 10.0 miles
Clouds Few 6000 ft
Windchill -3 °F
Dew Point -18 °F
Humidity 24%
Rainfall 0.00 in
Snow Depth Not available.
6:54 AM 5:31 PM
Waxing Crescent, 35% visible
METAR KWRI 132358Z AUTO 31013G19KT 10SM FEW060 M11/M24 A3026 RMK AO2 PK WND 30028/42 SLP249 60000 T11081243 11053 21108 52040

10-Day Weather Forecast

Almanac

Astronomy

Feb. 13, 2016 Rise Set
Actual Time
Civil Twilight
Nautical Twilight
Astronomical Twilight
Moon
Length of Visible Light
Length of Day
Tomorrow will be .
, % of the Moon is Illuminated

Today's Extremes

State Highs State Lows

Community

WunderPhotos

Upload Photos

1,892,712 photos uploaded!

WunderBlog® & News

Nearby

Air Quality

  Air Quality AQ Index Pollutant
Not available.

Snow Depth

Station Depth Elevation

Earthquake Activity

City Distance Mag. Time & Date
Minimum magnitude displayed is 2.5.

Coastal Water Temperatures

Place Temperature

Stations

Nearby Weather Stations

Station Location Temp. Windchill Dew Point Humidity Wind Precip. Elev Updated Type
                   

Watches & Warnings

Wind Chill Advisory
Issued: 4:00 PM EST Feb. 13, 2016 – National Weather Service

... Wind Chill Advisory remains in effect until 9 am EST Sunday...

* locations... much of eastern Pennsylvania and New Jersey...
Maryland's Eastern Shore... as well as the north and central
portion of Delaware.

* Wind chill... as low as 10 to 20 degrees below zero.

* Impacts... wind chill values reaching dangerous levels. The
very low wind chills have the potential to result in
hypothermia if care is not taken to stay warm and sheltered.

Precautionary/preparedness actions...

A Wind Chill Advisory means that very cold air and strong winds
will combine to generate low wind chills. This will result in
frost bite and lead to hypothermia if precautions are not taken.
If you must venture outdoors... make sure you wear a hat and
gloves.